メインページ
METAR-TAF:

METAR-TAF

空港 :

カルガリーSpringbank, アルバータ州, カナダ

緯度: 51-06N, 経度: 114-22W, 海抜: 1200m

現時点の気象観測

当レポートは26分前の06:00(UTC)に作成
北西の風 8kt
気温 -13°C
湿度 92%
気圧 1006 hPa
視程: 14.5km
晴天

METAR: CYBW 150600Z AUTO 31008KT 9SM CLR M13/M14 A2970 RMK SLP138

時間: 23:26 (06:26 UTC)

予報

当レポートは3時間20分前の03:06(UTC)に作成
予報は15日の 03時(UTC)から 15日の 05時(UTC)まで有効
変向風 3kt
視程: 9.7km
晴天
15日の 03時(UTC)から 15日の 05時(UTC)まで一時的に
視程: 1.2km

TAF: CYBW 150306Z 1503/1505 VRB03KT 6SM BR SKC TEMPO 1503/1505 3/4SM BR RMK FCST BASED ON AUTO OBS. NXT FCST WILL BE ISSUED AT 151245Z

4,000以上の空港の気象観測と天気予報(METAR報とTAF報)

利用可能な観測所は地図上に黄色い丸と赤い丸で示す。

丸の上にカーソルを重ねると観測所名を参照できる。

次にクリックすると気象観測と天気予報を参照できる。

マップの切り替え:黒色「×」印の緑ボタンをクリックして拡大、「-」印の緑ボタンをクリックして縮小、緑色の三角印をクリックして隣りの地図に切り替え


METAR-TAF: